메인 페이지
METAR-TAF:

METAR-TAF

공항 :

로스앤젤레스, 캘리포니아, 미국

로스앤젤레스 국제공항

위도: 33-56-17N, 경도: 118-23-20W, 고도: 38m

현재 날씨관측

예보는 1 시간 2분 전, 07:53시(UTC)에 발표되었습니다.
북서5kt
온도 12°C
습도 35%
기압 1021 hPa
시정: 16.1km
맑음

METAR: KLAX 210753Z 32005KT 10SM CLR 12/M03 A3016 RMK AO2 SLP213 T01221033 401720117

시각: 00:55 (08:55 UTC)

예보

예보는 4분 전, 08:51시(UTC)에 발표되었습니다.
예보 대상 시간: 21일 09시부터 22일 12시까지 (UTC)
북서6kt
시정: 10km
고도 25000ft 상공 구름 보통
21일 1200시부터 (UTC)
여러 방향의 바람 3kt
시정: 10km
고도 25000ft 상공 구름 보통
21일 2000시부터 (UTC)
12kt
시정: 10km
고도 25000ft 상공 구름 보통
22일 0400시부터 (UTC)
여러 방향의 바람 3kt
시정: 10km
고도 25000ft 상공 구름 보통

TAF: KLAX 210851Z 2109/2212 32006KT P6SM SCT250 FM211200 VRB03KT P6SM SCT250 FM212000 26012KT P6SM SCT250 FM220400 VRB03KT P6SM SCT250

4,000개 이상의 공항 관측 자료 및 예보 (METAR 및 TAF 보고).

지도상에서 검색 가능한 기상관측소가 노란 점과 빨간 점으로 표시되어 있습니다.

기상관측소 명을 보려면 표시 위로 마우스를 이동하세요.

날씨 관측과 예보를 보려면 클릭하세요.

지도 변경 : 확대하려면 엑스 표시가 있는 녹색 버튼, 축소하려면 빼기 표시가 있는 녹색 버튼, 다음 페이지의 지도를 보려면 녹색 화살표를 클릭하세요.


METAR-TAF: